createdAt,value
2022-11-01T00:01:56.866Z,65.26
2022-11-01T00:04:23.839Z,65.25
2022-11-01T00:06:50.969Z,65.25
2022-11-01T00:09:18.379Z,65.29
2022-11-01T00:11:45.224Z,65.31
2022-11-01T00:14:15.267Z,65.39
2022-11-01T00:16:43.037Z,65.20
2022-11-01T00:19:10.095Z,65.51
2022-11-01T00:21:36.912Z,65.44
2022-11-01T00:24:04.049Z,65.49
2022-11-01T00:26:31.068Z,65.29
2022-11-01T00:28:57.868Z,65.37
2022-11-01T00:31:24.848Z,65.28
2022-11-01T00:33:51.734Z,65.38
2022-11-01T00:36:31.207Z,65.53
2022-11-01T00:38:57.960Z,65.87
2022-11-01T00:41:24.926Z,65.84
2022-11-01T00:43:51.740Z,65.74
2022-11-01T00:46:18.623Z,66.02
2022-11-01T00:48:45.755Z,65.92
2022-11-01T00:51:12.552Z,65.76
2022-11-01T00:53:39.328Z,65.74
2022-11-01T00:56:07.400Z,65.44
2022-11-01T00:58:35.387Z,65.50
2022-11-01T01:01:02.228Z,65.54
2022-11-01T01:03:29.039Z,65.76
2022-11-01T01:05:55.888Z,65.68
2022-11-01T01:08:24.123Z,65.78
2022-11-01T01:10:51.151Z,65.78
2022-11-01T01:13:18.438Z,65.73
2022-11-01T01:15:45.388Z,65.66
2022-11-01T01:18:12.456Z,65.46
2022-11-01T01:20:39.257Z,65.70
2022-11-01T01:23:06.197Z,65.83
2022-11-01T01:25:32.975Z,65.91
2022-11-01T01:28:00.087Z,65.98
2022-11-01T01:30:27.132Z,66.21
2022-11-01T01:32:53.936Z,66.14
2022-11-01T01:35:20.742Z,66.33
2022-11-01T01:37:47.507Z,66.27
2022-11-01T01:40:14.293Z,66.37
2022-11-01T01:42:42.719Z,66.48
2022-11-01T01:45:29.462Z,66.46
2022-11-01T01:48:08.113Z,66.53
2022-11-01T01:50:42.116Z,66.61
2022-11-01T01:53:16.344Z,66.32
2022-11-01T01:56:04.440Z,66.63
2022-11-01T01:58:38.996Z,66.69
2022-11-01T02:01:05.973Z,66.93
2022-11-01T02:03:35.827Z,66.83
2022-11-01T02:06:17.984Z,66.66
2022-11-01T02:08:56.320Z,66.88
2022-11-01T02:11:23.525Z,66.91
2022-11-01T02:13:51.299Z,66.89
2022-11-01T02:16:35.911Z,66.91
2022-11-01T02:19:39.655Z,66.88
2022-11-01T02:22:34.369Z,67.00
2022-11-01T02:25:29.328Z,66.90
2022-11-01T02:28:38.478Z,67.05
2022-11-01T02:31:26.548Z,67.16
2022-11-01T02:34:42.967Z,67.30
2022-11-01T02:37:29.739Z,67.17
2022-11-01T02:40:06.343Z,66.98
2022-11-01T02:42:39.539Z,67.26
2022-11-01T02:45:34.785Z,67.01
2022-11-01T02:48:03.727Z,67.09
2022-11-01T02:50:39.074Z,67.09
2022-11-01T02:53:06.648Z,67.37
2022-11-01T02:55:36.200Z,67.22
2022-11-01T02:58:15.793Z,67.13
2022-11-01T03:00:43.394Z,67.08
2022-11-01T03:03:27.407Z,67.15
2022-11-01T03:06:00.304Z,67.20
2022-11-01T03:08:37.944Z,67.14
2022-11-01T03:11:21.324Z,67.05
2022-11-01T03:14:08.615Z,67.03
2022-11-01T03:17:02.582Z,66.96
2022-11-01T03:19:49.472Z,66.97
2022-11-01T03:22:45.003Z,67.02
2022-11-01T03:25:40.788Z,66.89
2022-11-01T03:28:38.483Z,66.97
2022-11-01T03:31:28.632Z,67.04
2022-11-01T03:34:01.374Z,67.00
2022-11-01T03:36:34.173Z,67.09
2022-11-01T03:39:11.785Z,66.77
2022-11-01T03:41:45.336Z,66.76
2022-11-01T03:44:13.355Z,66.92
2022-11-01T03:46:41.852Z,66.96
2022-11-01T03:49:08.716Z,66.82
2022-11-01T03:51:35.532Z,66.89
2022-11-01T03:54:02.341Z,66.94
2022-11-01T03:56:29.182Z,66.64
2022-11-01T03:58:56.012Z,66.86
2022-11-01T04:01:22.861Z,66.86
2022-11-01T04:03:49.703Z,66.46
2022-11-01T04:06:16.483Z,66.76
2022-11-01T04:08:43.249Z,66.95
2022-11-01T04:11:10.027Z,66.50
2022-11-01T04:13:36.786Z,66.64
2022-11-01T04:16:22.435Z,66.65
2022-11-01T04:19:07.589Z,66.63
2022-11-01T04:21:34.948Z,66.76
2022-11-01T04:24:01.700Z,66.76
2022-11-01T04:26:28.461Z,66.87
2022-11-01T04:28:58.095Z,66.88
2022-11-01T04:31:27.639Z,66.76
2022-11-01T04:33:56.007Z,66.69
2022-11-01T04:36:23.119Z,66.74
2022-11-01T04:38:52.138Z,66.97
2022-11-01T04:41:23.872Z,66.72
2022-11-01T04:43:55.800Z,66.70
2022-11-01T04:46:22.834Z,66.56
2022-11-01T04:48:50.018Z,66.74
2022-11-01T04:51:16.878Z,66.73
2022-11-01T04:53:43.802Z,66.63
2022-11-01T04:56:13.562Z,66.56
2022-11-01T04:58:44.808Z,66.71
2022-11-01T05:01:14.640Z,66.56
2022-11-01T05:03:42.713Z,66.73
2022-11-01T05:06:09.761Z,66.51
2022-11-01T05:08:36.527Z,66.45
2022-11-01T05:11:03.308Z,66.63
2022-11-01T05:13:30.125Z,66.57
2022-11-01T05:16:18.492Z,66.25
2022-11-01T05:18:43.767Z,66.39
2022-11-01T05:21:11.288Z,66.39
2022-11-01T05:23:38.054Z,66.46
2022-11-01T05:26:05.139Z,66.51
2022-11-01T05:28:31.899Z,66.46
2022-11-01T05:30:59.005Z,66.55
2022-11-01T05:33:25.881Z,66.25
2022-11-01T05:35:52.667Z,66.59
2022-11-01T05:38:19.460Z,66.52
2022-11-01T05:40:46.246Z,66.71
2022-11-01T05:43:13.024Z,66.34
2022-11-01T05:45:39.808Z,66.58
2022-11-01T05:48:06.624Z,66.45
2022-11-01T05:50:33.422Z,66.47
2022-11-01T05:53:10.348Z,66.40
2022-11-01T05:55:38.824Z,66.29
2022-11-01T05:58:06.293Z,66.50
2022-11-01T06:00:34.414Z,66.34
2022-11-01T06:03:01.651Z,66.62
2022-11-01T06:05:30.069Z,66.57
2022-11-01T06:07:57.815Z,66.84
2022-11-01T06:10:24.592Z,66.63
2022-11-01T06:12:51.376Z,66.62
2022-11-01T06:15:18.473Z,66.62
2022-11-01T06:17:45.336Z,66.79
2022-11-01T06:20:12.406Z,66.70
2022-11-01T06:22:39.594Z,66.88
2022-11-01T06:25:08.115Z,66.71
2022-11-01T06:27:34.903Z,66.92
2022-11-01T06:30:01.732Z,66.93
2022-11-01T06:32:28.550Z,66.73
2022-11-01T06:34:55.366Z,66.73
2022-11-01T06:37:22.146Z,66.77
2022-11-01T06:39:48.923Z,67.06
2022-11-01T06:42:15.707Z,66.94
2022-11-01T06:44:42.666Z,66.95
2022-11-01T06:47:09.633Z,67.25
2022-11-01T06:49:36.419Z,66.89
2022-11-01T06:52:04.934Z,66.97
2022-11-01T06:54:32.458Z,66.99
2022-11-01T06:56:59.288Z,67.14
2022-11-01T06:59:26.081Z,67.13
2022-11-01T07:01:52.939Z,67.16
2022-11-01T07:04:21.112Z,67.18
2022-11-01T07:06:48.017Z,67.38
2022-11-01T07:09:14.898Z,67.19
2022-11-01T07:11:41.661Z,67.22
2022-11-01T07:14:09.300Z,67.40
2022-11-01T07:16:36.062Z,67.18
2022-11-01T07:19:02.872Z,67.18
2022-11-01T07:21:29.636Z,67.39
2022-11-01T07:23:56.457Z,67.37
2022-11-01T07:26:23.370Z,67.36
2022-11-01T07:28:50.180Z,67.20
2022-11-01T07:31:17.005Z,67.40
2022-11-01T07:33:44.016Z,67.05
2022-11-01T07:36:10.775Z,67.08
2022-11-01T07:38:38.285Z,66.68
2022-11-01T07:41:06.122Z,67.10
2022-11-01T07:43:35.583Z,66.80
2022-11-01T07:46:04.193Z,66.76
2022-11-01T07:48:31.092Z,67.18
2022-11-01T07:50:57.927Z,66.90
2022-11-01T07:53:25.171Z,66.77
2022-11-01T07:55:52.005Z,66.76
2022-11-01T07:58:18.770Z,66.66
2022-11-01T08:00:46.189Z,66.58
2022-11-01T08:03:16.476Z,66.59
2022-11-01T08:05:44.658Z,66.57
2022-11-01T08:08:12.359Z,66.57
2022-11-01T08:10:39.845Z,66.28
2022-11-01T08:13:25.608Z,66.29
2022-11-01T08:15:53.629Z,66.27
2022-11-01T08:18:22.517Z,66.11
2022-11-01T08:20:50.342Z,66.12
2022-11-01T08:23:17.412Z,65.83
2022-11-01T08:25:44.799Z,65.93
2022-11-01T08:28:15.902Z,65.81
2022-11-01T08:30:44.557Z,65.75
2022-11-01T08:33:11.538Z,65.53
2022-11-01T08:35:38.788Z,65.35
2022-11-01T08:38:05.971Z,65.29
2022-11-01T08:40:34.266Z,65.15
2022-11-01T08:43:01.680Z,65.23
2022-11-01T08:45:29.046Z,65.31
2022-11-01T08:48:00.857Z,65.09
2022-11-01T08:50:28.567Z,64.97
2022-11-01T08:52:55.361Z,65.04
2022-11-01T08:55:22.927Z,64.89
2022-11-01T08:57:49.922Z,64.50
2022-11-01T09:00:17.679Z,64.61
2022-11-01T09:02:44.500Z,64.29
2022-11-01T09:05:11.344Z,64.60
2022-11-01T09:07:38.722Z,64.54
2022-11-01T09:10:06.945Z,64.43
2022-11-01T09:12:33.800Z,64.69
2022-11-01T09:15:00.697Z,64.82
2022-11-01T09:17:27.793Z,64.63
2022-11-01T09:19:54.560Z,64.57
2022-11-01T09:22:21.774Z,64.27
2022-11-01T09:24:48.547Z,64.47
2022-11-01T09:27:16.186Z,64.09
2022-11-01T09:29:45.322Z,64.11
2022-11-01T09:32:15.086Z,63.58
2022-11-01T09:34:41.890Z,64.11
2022-11-01T09:37:08.672Z,63.63
2022-11-01T09:39:35.437Z,63.50
2022-11-01T09:42:05.966Z,63.39
2022-11-01T09:44:46.577Z,63.36
2022-11-01T09:47:20.930Z,63.21
2022-11-01T09:49:50.737Z,64.05
2022-11-01T09:52:24.082Z,63.55
2022-11-01T09:54:51.278Z,63.22
2022-11-01T09:57:35.215Z,63.04
2022-11-01T10:00:16.213Z,63.14
2022-11-01T10:03:20.068Z,62.95
2022-11-01T10:06:04.922Z,62.76
2022-11-01T10:08:51.886Z,62.79
2022-11-01T10:11:50.204Z,62.76
2022-11-01T10:14:35.392Z,62.45
2022-11-01T10:17:51.892Z,62.32
2022-11-01T10:20:23.710Z,61.85
2022-11-01T10:22:51.195Z,61.48
2022-11-01T10:25:29.632Z,61.53
2022-11-01T10:28:28.067Z,61.14
2022-11-01T10:31:02.303Z,61.12
2022-11-01T10:33:46.475Z,61.35
2022-11-01T10:36:21.789Z,61.49
2022-11-01T10:42:17.408Z,60.82
2022-11-01T10:44:54.464Z,60.80
2022-11-01T10:47:24.089Z,60.49
2022-11-01T10:50:19.696Z,60.32
2022-11-01T10:53:01.992Z,59.78
2022-11-01T10:55:39.450Z,58.75
2022-11-01T10:58:25.666Z,58.37
2022-11-01T11:00:52.941Z,58.18
2022-11-01T11:03:24.912Z,57.90
2022-11-01T11:05:54.277Z,57.69
2022-11-01T11:08:23.985Z,57.50
2022-11-01T11:10:51.480Z,57.30
2022-11-01T11:13:25.183Z,56.57
2022-11-01T11:16:00.530Z,56.37
2022-11-01T11:18:42.059Z,55.81
2022-11-01T11:21:12.283Z,55.17
2022-11-01T11:23:46.062Z,54.55
2022-11-01T11:26:18.263Z,54.34
2022-11-01T11:28:52.009Z,54.39
2022-11-01T11:31:25.843Z,53.92
2022-11-01T11:34:26.119Z,54.03
2022-11-01T11:36:54.937Z,53.68
2022-11-01T11:39:35.654Z,53.60
2022-11-01T11:42:20.372Z,52.80
2022-11-01T11:44:52.072Z,54.94
2022-11-01T11:47:36.140Z,53.00
2022-11-01T11:50:25.059Z,52.58
2022-11-01T11:53:02.313Z,51.38
2022-11-01T11:55:55.632Z,51.92
2022-11-01T11:58:40.820Z,51.09
2022-11-01T12:01:15.596Z,49.97
2022-11-01T12:03:56.564Z,49.66
2022-11-01T12:06:26.323Z,49.25
2022-11-01T12:08:56.714Z,47.89
2022-11-01T12:11:25.475Z,47.53
2022-11-01T12:14:27.307Z,47.77
2022-11-01T12:16:54.113Z,46.96
2022-11-01T12:19:28.567Z,47.04
2022-11-01T12:21:58.016Z,49.47
2022-11-01T12:24:30.183Z,47.73
2022-11-01T12:27:03.761Z,46.70
2022-11-01T12:29:36.743Z,46.75
2022-11-01T12:32:19.600Z,46.17
2022-11-01T12:34:48.769Z,44.87
2022-11-01T12:37:57.652Z,45.81
2022-11-01T12:40:33.853Z,44.93
2022-11-01T12:43:16.477Z,44.56
2022-11-01T12:45:56.510Z,44.37
2022-11-01T12:48:37.410Z,44.79
2022-11-01T12:51:19.659Z,44.17
2022-11-01T12:54:05.969Z,44.48
2022-11-01T12:56:32.964Z,44.05
2022-11-01T12:59:00.022Z,43.87
2022-11-01T13:01:52.844Z,44.40
2022-11-01T13:04:36.184Z,44.29
2022-11-01T13:07:40.774Z,44.17
2022-11-01T13:10:13.840Z,44.33
2022-11-01T13:12:54.524Z,43.97
2022-11-01T13:15:36.871Z,43.98
2022-11-01T13:18:37.397Z,43.82
2022-11-01T13:21:12.836Z,44.47
2022-11-01T13:24:01.586Z,44.08
2022-11-01T13:26:46.810Z,44.14
2022-11-01T13:29:52.742Z,44.04
2022-11-01T13:32:27.139Z,44.30
2022-11-01T13:35:34.554Z,44.75
2022-11-01T13:38:13.327Z,44.33
2022-11-01T13:40:56.984Z,43.94
2022-11-01T13:43:43.848Z,44.05
2022-11-01T13:46:29.433Z,43.74
2022-11-01T13:49:49.768Z,44.45
2022-11-01T13:52:22.418Z,43.58
2022-11-01T13:55:00.026Z,43.81
2022-11-01T13:57:27.640Z,43.54
2022-11-01T13:59:59.592Z,43.14
2022-11-01T14:02:26.305Z,43.43
2022-11-01T14:05:08.728Z,43.44
2022-11-01T14:08:04.717Z,43.88
2022-11-01T14:10:31.861Z,43.69
2022-11-01T14:13:07.463Z,43.31
2022-11-01T14:15:54.102Z,43.61
2022-11-01T14:18:21.330Z,43.49
2022-11-01T14:20:50.941Z,43.89
2022-11-01T14:23:40.619Z,44.25
2022-11-01T14:26:22.744Z,43.86
2022-11-01T14:28:52.218Z,44.16
2022-11-01T14:31:24.237Z,43.95
2022-11-01T14:33:54.738Z,44.13
2022-11-01T14:36:27.598Z,44.10
2022-11-01T14:39:06.995Z,44.13
2022-11-01T14:41:40.527Z,44.00
2022-11-01T14:44:19.932Z,44.22
2022-11-01T14:46:49.624Z,44.79
2022-11-01T14:49:56.864Z,45.29
2022-11-01T14:52:40.634Z,44.87
2022-11-01T14:55:30.983Z,45.10
2022-11-01T14:58:31.183Z,45.09
2022-11-01T15:01:06.321Z,45.24
2022-11-01T15:03:36.142Z,44.87
2022-11-01T15:06:04.664Z,45.16
2022-11-01T15:08:40.504Z,45.20
2022-11-01T15:11:08.099Z,44.92
2022-11-01T15:13:41.289Z,45.40
2022-11-01T15:16:21.612Z,45.65
2022-11-01T15:18:55.279Z,45.76
2022-11-01T15:21:28.838Z,45.73
2022-11-01T15:23:58.487Z,45.91
2022-11-01T15:26:28.305Z,46.12
2022-11-01T15:29:00.433Z,46.01
2022-11-01T15:31:27.699Z,46.21
2022-11-01T15:34:04.667Z,45.99
2022-11-01T15:36:37.100Z,46.29
2022-11-01T15:39:29.267Z,46.13
2022-11-01T15:41:57.491Z,46.23
2022-11-01T15:44:27.879Z,46.08
2022-11-01T15:47:01.513Z,45.99
2022-11-01T15:49:36.205Z,46.06
2022-11-01T15:52:21.850Z,46.30
2022-11-01T15:55:09.479Z,46.45
2022-11-01T15:57:44.253Z,46.29
2022-11-01T16:00:18.563Z,46.48
2022-11-01T16:02:54.216Z,46.62
2022-11-01T16:05:30.962Z,46.61
2022-11-01T16:07:58.337Z,46.63
2022-11-01T16:10:30.386Z,46.48
2022-11-01T16:12:59.081Z,46.67
2022-11-01T16:15:31.931Z,46.74
2022-11-01T16:18:00.381Z,46.74
2022-11-01T16:20:40.891Z,46.77
2022-11-01T16:23:14.737Z,46.99
2022-11-01T16:25:41.557Z,46.93
2022-11-01T16:28:11.310Z,47.04
2022-11-01T16:30:51.824Z,47.39
2022-11-01T16:33:37.998Z,46.95
2022-11-01T16:36:36.337Z,47.87
2022-11-01T16:39:24.473Z,47.72
2022-11-01T16:41:52.673Z,47.58
2022-11-01T16:44:20.281Z,47.62
2022-11-01T16:46:47.436Z,47.63
2022-11-01T16:49:14.110Z,47.95
2022-11-01T16:51:41.488Z,48.16
2022-11-01T16:54:12.812Z,48.04
2022-11-01T16:56:49.479Z,48.20
2022-11-01T16:59:38.954Z,48.33
2022-11-01T17:02:17.045Z,48.51
2022-11-01T17:04:49.667Z,48.52
2022-11-01T17:07:16.504Z,48.64
2022-11-01T17:09:43.946Z,48.60
2022-11-01T17:12:11.462Z,48.74
2022-11-01T17:17:24.458Z,48.96
2022-11-01T17:20:01.112Z,48.99
2022-11-01T17:22:34.835Z,48.97
2022-11-01T17:25:04.202Z,49.34
2022-11-01T17:27:31.256Z,49.31
2022-11-01T17:29:58.177Z,49.17
2022-11-01T17:32:24.950Z,49.34
2022-11-01T17:34:51.751Z,49.41
2022-11-01T17:37:18.548Z,49.53
2022-11-01T17:39:45.485Z,49.49
2022-11-01T17:42:12.272Z,49.57
2022-11-01T17:44:39.070Z,49.42
2022-11-01T17:47:05.842Z,49.47
2022-11-01T17:49:32.609Z,49.59
2022-11-01T17:52:00.196Z,49.67
2022-11-01T17:54:27.014Z,49.80
2022-11-01T17:56:53.780Z,49.68
2022-11-01T17:59:20.693Z,49.68
2022-11-01T18:01:47.731Z,49.85
2022-11-01T18:04:14.647Z,49.74
2022-11-01T18:06:42.317Z,50.04
2022-11-01T18:09:25.914Z,50.02
2022-11-01T18:12:05.916Z,50.04
2022-11-01T18:15:00.979Z,50.19
2022-11-01T18:17:32.981Z,51.00
2022-11-01T18:20:31.558Z,50.50
2022-11-01T18:23:03.685Z,50.36
2022-11-01T18:25:48.494Z,50.52
2022-11-01T18:28:25.177Z,50.35
2022-11-01T18:31:16.683Z,50.62
2022-11-01T18:34:31.124Z,50.50
2022-11-01T18:37:23.554Z,50.67
2022-11-01T18:40:02.200Z,50.55
2022-11-01T18:42:30.079Z,50.70
2022-11-01T18:45:04.338Z,50.80
2022-11-01T18:47:34.927Z,50.65
2022-11-01T18:50:12.815Z,50.59
2022-11-01T18:52:44.925Z,50.41
2022-11-01T18:55:13.743Z,50.72
2022-11-01T18:57:40.714Z,50.81
2022-11-01T19:00:14.049Z,50.53
2022-11-01T19:02:41.272Z,50.57
2022-11-01T19:05:19.328Z,50.71
2022-11-01T19:08:10.218Z,50.72
2022-11-01T19:10:41.433Z,50.83
2022-11-01T19:13:12.994Z,50.77
2022-11-01T19:15:40.105Z,50.70
2022-11-01T19:18:19.625Z,50.61
2022-11-01T19:20:58.575Z,50.73
2022-11-01T19:23:38.062Z,50.81
2022-11-01T19:26:45.874Z,50.91
2022-11-01T19:29:19.147Z,50.89
2022-11-01T19:31:48.309Z,50.76
2022-11-01T19:34:25.873Z,50.87
2022-11-01T19:36:53.579Z,51.00
2022-11-01T19:39:32.261Z,50.80
2022-11-01T19:42:14.126Z,50.67
2022-11-01T19:44:40.915Z,50.91
2022-11-01T19:47:40.988Z,50.98
2022-11-01T19:50:23.840Z,50.93
2022-11-01T19:52:53.041Z,50.92
2022-11-01T19:55:52.700Z,50.99
2022-11-01T19:58:22.553Z,50.94
2022-11-01T20:00:49.959Z,51.02
2022-11-01T20:03:29.839Z,51.03
2022-11-01T20:05:56.779Z,51.03
2022-11-01T20:08:33.490Z,51.01
2022-11-01T20:11:00.601Z,50.95
2022-11-01T20:13:27.401Z,51.01
2022-11-01T20:15:54.207Z,50.92
2022-11-01T20:18:20.975Z,51.15
2022-11-01T20:20:47.825Z,51.07
2022-11-01T20:23:29.791Z,50.98
2022-11-01T20:25:56.608Z,51.04
2022-11-01T20:28:23.408Z,50.86
2022-11-01T20:30:50.203Z,50.97
2022-11-01T20:33:17.859Z,51.03
2022-11-01T20:35:45.060Z,50.96
2022-11-01T20:38:11.928Z,50.87
2022-11-01T20:40:38.710Z,50.91
2022-11-01T20:43:06.906Z,50.95
2022-11-01T20:45:37.114Z,51.03
2022-11-01T20:48:07.293Z,51.23
2022-11-01T20:50:34.297Z,51.09
2022-11-01T20:53:02.414Z,51.31
2022-11-01T20:55:29.456Z,51.27
2022-11-01T20:57:56.280Z,51.34
2022-11-01T21:00:23.117Z,51.38
2022-11-01T21:02:49.897Z,51.35
2022-11-01T21:05:29.923Z,51.36
2022-11-01T21:08:10.952Z,51.19
2022-11-01T21:10:40.481Z,51.37
2022-11-01T21:13:27.343Z,51.22
2022-11-01T21:15:57.533Z,51.42
2022-11-01T21:18:44.630Z,51.24
2022-11-01T21:21:23.349Z,51.23
2022-11-01T21:23:50.165Z,51.44
2022-11-01T21:26:24.564Z,50.80
2022-11-01T21:28:55.948Z,51.72
2022-11-01T21:31:28.408Z,51.19
2022-11-01T21:34:11.449Z,51.34
2022-11-01T21:36:52.169Z,51.31
2022-11-01T21:39:28.411Z,51.49
2022-11-01T21:42:00.983Z,51.46
2022-11-01T21:44:41.552Z,51.50
2022-11-01T21:47:25.242Z,51.41
2022-11-01T21:49:52.091Z,51.71
2022-11-01T21:52:19.528Z,51.78
2022-11-01T21:54:47.649Z,51.42
2022-11-01T21:57:15.822Z,51.47
2022-11-01T21:59:43.447Z,51.41
2022-11-01T22:02:13.644Z,51.57
2022-11-01T22:04:40.789Z,51.36
2022-11-01T22:07:09.937Z,51.46
2022-11-01T22:09:37.733Z,51.57
2022-11-01T22:12:06.634Z,51.62
2022-11-01T22:14:33.581Z,51.85
2022-11-01T22:17:00.964Z,51.69
2022-11-01T22:19:27.938Z,51.41
2022-11-01T22:21:54.760Z,51.57
2022-11-01T22:24:21.608Z,51.65
2022-11-01T22:26:48.420Z,51.71
2022-11-01T22:29:15.247Z,51.83
2022-11-01T22:31:42.003Z,52.17
2022-11-01T22:34:08.827Z,51.73
2022-11-01T22:36:37.514Z,52.07
2022-11-01T22:39:18.922Z,51.79
2022-11-01T22:41:45.821Z,52.02
2022-11-01T22:44:19.254Z,51.97
2022-11-01T22:46:58.227Z,51.98
2022-11-01T22:49:32.956Z,51.95
2022-11-01T22:52:29.742Z,51.92
2022-11-01T22:55:14.108Z,51.93
2022-11-01T22:57:47.720Z,52.09
2022-11-01T23:00:33.565Z,51.96
2022-11-01T23:03:20.831Z,52.19
2022-11-01T23:05:51.973Z,52.24
2022-11-01T23:08:33.429Z,52.36
2022-11-01T23:11:01.608Z,52.35
2022-11-01T23:13:53.435Z,52.22
2022-11-01T23:16:31.990Z,52.36
2022-11-01T23:19:01.831Z,52.27
2022-11-01T23:21:28.753Z,52.32
2022-11-01T23:23:55.894Z,52.36
2022-11-01T23:26:23.712Z,52.40
2022-11-01T23:28:54.672Z,52.35
2022-11-01T23:31:22.123Z,52.27
2022-11-01T23:33:50.081Z,52.48
2022-11-01T23:36:19.909Z,52.57
2022-11-01T23:38:53.068Z,52.58
2022-11-01T23:41:34.166Z,52.50
2022-11-01T23:44:07.422Z,52.64
2022-11-01T23:46:34.172Z,52.83
2022-11-01T23:49:11.253Z,52.78
2022-11-01T23:51:38.019Z,52.82
2022-11-01T23:54:06.470Z,52.97
2022-11-01T23:56:33.249Z,52.68
2022-11-01T23:59:04.818Z,53.12
